sensor_id;sensor_type;location;lat;lon;timestamp;temperature;humidity
54192;DHT22;40101;53.002;6.488;2023-09-12T00:02:06;19.70;99.90
54192;DHT22;40101;53.002;6.488;2023-09-12T00:04:31;19.60;99.90
54192;DHT22;40101;53.002;6.488;2023-09-12T00:06:57;19.60;99.90
54192;DHT22;40101;53.002;6.488;2023-09-12T00:09:22;19.60;99.90
54192;DHT22;40101;53.002;6.488;2023-09-12T00:11:48;19.60;99.90
54192;DHT22;40101;53.002;6.488;2023-09-12T00:14:17;19.70;99.90
54192;DHT22;40101;53.002;6.488;2023-09-12T00:16:43;19.60;99.90
54192;DHT22;40101;53.002;6.488;2023-09-12T00:19:09;19.70;99.90
54192;DHT22;40101;53.002;6.488;2023-09-12T00:21:34;19.70;99.90
54192;DHT22;40101;53.002;6.488;2023-09-12T00:24:00;19.70;99.90
54192;DHT22;40101;53.002;6.488;2023-09-12T00:26:27;19.70;99.90
54192;DHT22;40101;53.002;6.488;2023-09-12T00:28:52;19.60;99.90
54192;DHT22;40101;53.002;6.488;2023-09-12T00:31:18;19.70;99.90
54192;DHT22;40101;53.002;6.488;2023-09-12T00:33:43;19.70;99.90
54192;DHT22;40101;53.002;6.488;2023-09-12T00:36:09;19.60;99.90
54192;DHT22;40101;53.002;6.488;2023-09-12T00:38:35;19.60;99.90
54192;DHT22;40101;53.002;6.488;2023-09-12T00:41:00;19.60;99.90
54192;DHT22;40101;53.002;6.488;2023-09-12T00:43:26;19.60;99.90
54192;DHT22;40101;53.002;6.488;2023-09-12T00:45:52;19.70;99.90
54192;DHT22;40101;53.002;6.488;2023-09-12T00:48:18;19.60;99.90
54192;DHT22;40101;53.002;6.488;2023-09-12T00:50:45;19.60;99.90
54192;DHT22;40101;53.002;6.488;2023-09-12T00:53:13;19.50;99.90
54192;DHT22;40101;53.002;6.488;2023-09-12T00:55:44;19.40;99.90
54192;DHT22;40101;53.002;6.488;2023-09-12T00:58:11;19.50;99.90
54192;DHT22;40101;53.002;6.488;2023-09-12T01:00:36;19.40;99.90
54192;DHT22;40101;53.002;6.488;2023-09-12T01:03:02;19.30;99.90
54192;DHT22;40101;53.002;6.488;2023-09-12T01:05:29;19.30;99.90
54192;DHT22;40101;53.002;6.488;2023-09-12T01:07:54;19.30;99.90
54192;DHT22;40101;53.002;6.488;2023-09-12T01:10:20;19.30;99.90
54192;DHT22;40101;53.002;6.488;2023-09-12T01:12:46;19.20;99.90
54192;DHT22;40101;53.002;6.488;2023-09-12T01:15:12;19.30;99.90
54192;DHT22;40101;53.002;6.488;2023-09-12T01:17:43;19.20;99.90
54192;DHT22;40101;53.002;6.488;2023-09-12T01:20:14;19.30;99.90
54192;DHT22;40101;53.002;6.488;2023-09-12T01:25:42;19.30;99.90
54192;DHT22;40101;53.002;6.488;2023-09-12T01:28:12;19.30;99.90
54192;DHT22;40101;53.002;6.488;2023-09-12T01:30:42;19.30;99.90
54192;DHT22;40101;53.002;6.488;2023-09-12T01:33:08;19.30;99.90
54192;DHT22;40101;53.002;6.488;2023-09-12T01:35:33;19.20;99.90
54192;DHT22;40101;53.002;6.488;2023-09-12T01:37:59;19.10;99.90
54192;DHT22;40101;53.002;6.488;2023-09-12T01:40:42;19.20;99.90
54192;DHT22;40101;53.002;6.488;2023-09-12T01:43:09;19.20;99.90
54192;DHT22;40101;53.002;6.488;2023-09-12T01:45:35;19.20;99.90
54192;DHT22;40101;53.002;6.488;2023-09-12T01:48:04;19.20;99.90
54192;DHT22;40101;53.002;6.488;2023-09-12T01:50:31;19.10;99.90
54192;DHT22;40101;53.002;6.488;2023-09-12T01:52:58;19.20;99.90
54192;DHT22;40101;53.002;6.488;2023-09-12T01:55:25;19.10;99.90
54192;DHT22;40101;53.002;6.488;2023-09-12T01:57:51;19.00;99.90
54192;DHT22;40101;53.002;6.488;2023-09-12T02:00:18;19.00;99.90
54192;DHT22;40101;53.002;6.488;2023-09-12T02:02:44;19.00;99.90
54192;DHT22;40101;53.002;6.488;2023-09-12T02:05:20;18.90;99.90
54192;DHT22;40101;53.002;6.488;2023-09-12T02:07:47;18.90;99.90
54192;DHT22;40101;53.002;6.488;2023-09-12T02:10:13;19.00;99.90
54192;DHT22;40101;53.002;6.488;2023-09-12T02:12:39;19.00;99.90
54192;DHT22;40101;53.002;6.488;2023-09-12T02:15:06;19.00;99.90
54192;DHT22;40101;53.002;6.488;2023-09-12T02:17:32;19.00;99.90
54192;DHT22;40101;53.002;6.488;2023-09-12T02:19:57;19.00;99.90
54192;DHT22;40101;53.002;6.488;2023-09-12T02:22:23;19.00;99.90
54192;DHT22;40101;53.002;6.488;2023-09-12T02:24:49;19.00;99.90
54192;DHT22;40101;53.002;6.488;2023-09-12T02:27:15;19.00;99.90
54192;DHT22;40101;53.002;6.488;2023-09-12T02:29:42;19.00;99.90
54192;DHT22;40101;53.002;6.488;2023-09-12T02:32:08;18.90;99.90
54192;DHT22;40101;53.002;6.488;2023-09-12T02:34:34;18.90;99.90
54192;DHT22;40101;53.002;6.488;2023-09-12T02:37:00;18.90;99.90
54192;DHT22;40101;53.002;6.488;2023-09-12T02:39:25;18.90;99.90
54192;DHT22;40101;53.002;6.488;2023-09-12T02:41:51;18.90;99.90
54192;DHT22;40101;53.002;6.488;2023-09-12T02:44:17;18.90;99.90
54192;DHT22;40101;53.002;6.488;2023-09-12T02:46:42;19.00;99.90
54192;DHT22;40101;53.002;6.488;2023-09-12T02:49:08;19.00;99.90
54192;DHT22;40101;53.002;6.488;2023-09-12T02:51:33;19.00;99.90
54192;DHT22;40101;53.002;6.488;2023-09-12T02:53:59;18.90;99.90
54192;DHT22;40101;53.002;6.488;2023-09-12T02:56:25;18.90;99.90
54192;DHT22;40101;53.002;6.488;2023-09-12T02:58:50;19.00;99.90
54192;DHT22;40101;53.002;6.488;2023-09-12T03:01:17;19.00;99.90
54192;DHT22;40101;53.002;6.488;2023-09-12T03:03:45;18.80;99.90
54192;DHT22;40101;53.002;6.488;2023-09-12T03:06:12;18.90;99.90
54192;DHT22;40101;53.002;6.488;2023-09-12T03:08:38;18.80;99.90
54192;DHT22;40101;53.002;6.488;2023-09-12T03:11:04;18.80;99.90
54192;DHT22;40101;53.002;6.488;2023-09-12T03:13:30;18.70;99.90
54192;DHT22;40101;53.002;6.488;2023-09-12T03:15:55;18.70;99.90
54192;DHT22;40101;53.002;6.488;2023-09-12T03:18:21;18.60;99.90
54192;DHT22;40101;53.002;6.488;2023-09-12T03:20:46;18.70;99.90
54192;DHT22;40101;53.002;6.488;2023-09-12T03:23:12;18.60;99.90
54192;DHT22;40101;53.002;6.488;2023-09-12T03:25:38;18.50;99.90
54192;DHT22;40101;53.002;6.488;2023-09-12T03:28:05;18.40;99.90
54192;DHT22;40101;53.002;6.488;2023-09-12T03:30:35;18.50;99.90
54192;DHT22;40101;53.002;6.488;2023-09-12T03:33:02;18.30;99.90
54192;DHT22;40101;53.002;6.488;2023-09-12T03:35:29;18.30;99.90
54192;DHT22;40101;53.002;6.488;2023-09-12T03:37:55;18.30;99.90
54192;DHT22;40101;53.002;6.488;2023-09-12T03:40:20;18.30;99.90
54192;DHT22;40101;53.002;6.488;2023-09-12T03:42:46;18.30;99.90
54192;DHT22;40101;53.002;6.488;2023-09-12T03:45:12;18.30;99.90
54192;DHT22;40101;53.002;6.488;2023-09-12T03:47:37;18.40;99.90
54192;DHT22;40101;53.002;6.488;2023-09-12T03:50:03;18.40;99.90
54192;DHT22;40101;53.002;6.488;2023-09-12T03:52:29;18.40;99.90
54192;DHT22;40101;53.002;6.488;2023-09-12T03:54:55;18.40;99.90
54192;DHT22;40101;53.002;6.488;2023-09-12T03:57:20;18.40;99.90
54192;DHT22;40101;53.002;6.488;2023-09-12T03:59:46;18.40;99.90
54192;DHT22;40101;53.002;6.488;2023-09-12T04:02:12;18.40;99.90
54192;DHT22;40101;53.002;6.488;2023-09-12T04:04:38;18.30;99.90
54192;DHT22;40101;53.002;6.488;2023-09-12T04:07:04;18.30;99.90
54192;DHT22;40101;53.002;6.488;2023-09-12T04:09:30;18.30;99.90
54192;DHT22;40101;53.002;6.488;2023-09-12T04:11:55;18.20;99.90
54192;DHT22;40101;53.002;6.488;2023-09-12T04:14:21;18.10;99.90
54192;DHT22;40101;53.002;6.488;2023-09-12T04:16:47;18.20;99.90
54192;DHT22;40101;53.002;6.488;2023-09-12T04:19:14;18.10;99.90
54192;DHT22;40101;53.002;6.488;2023-09-12T04:21:40;18.20;99.90
54192;DHT22;40101;53.002;6.488;2023-09-12T04:24:06;18.20;99.90
54192;DHT22;40101;53.002;6.488;2023-09-12T04:26:32;18.10;99.90
54192;DHT22;40101;53.002;6.488;2023-09-12T04:28:57;18.10;99.90
54192;DHT22;40101;53.002;6.488;2023-09-12T04:31:23;18.10;99.90
54192;DHT22;40101;53.002;6.488;2023-09-12T04:33:53;18.10;99.90
54192;DHT22;40101;53.002;6.488;2023-09-12T04:36:19;18.00;99.90
54192;DHT22;40101;53.002;6.488;2023-09-12T04:38:45;18.00;99.90
54192;DHT22;40101;53.002;6.488;2023-09-12T04:41:12;18.00;99.90
54192;DHT22;40101;53.002;6.488;2023-09-12T04:43:41;18.00;99.90
54192;DHT22;40101;53.002;6.488;2023-09-12T04:46:06;18.00;99.90
54192;DHT22;40101;53.002;6.488;2023-09-12T04:48:32;18.00;99.90
54192;DHT22;40101;53.002;6.488;2023-09-12T04:50:58;17.90;99.90
54192;DHT22;40101;53.002;6.488;2023-09-12T04:53:24;18.00;99.90
54192;DHT22;40101;53.002;6.488;2023-09-12T04:55:52;17.90;99.90
54192;DHT22;40101;53.002;6.488;2023-09-12T04:58:18;18.00;99.90
54192;DHT22;40101;53.002;6.488;2023-09-12T05:00:45;17.80;99.90
54192;DHT22;40101;53.002;6.488;2023-09-12T05:03:10;17.90;99.90
54192;DHT22;40101;53.002;6.488;2023-09-12T05:05:36;17.90;99.90
54192;DHT22;40101;53.002;6.488;2023-09-12T05:08:02;17.90;99.90
54192;DHT22;40101;53.002;6.488;2023-09-12T05:10:29;17.90;99.90
54192;DHT22;40101;53.002;6.488;2023-09-12T05:12:55;17.90;99.90
54192;DHT22;40101;53.002;6.488;2023-09-12T05:15:20;17.90;99.90
54192;DHT22;40101;53.002;6.488;2023-09-12T05:17:46;17.90;99.90
54192;DHT22;40101;53.002;6.488;2023-09-12T05:20:12;18.00;99.90
54192;DHT22;40101;53.002;6.488;2023-09-12T05:22:37;18.00;99.90
54192;DHT22;40101;53.002;6.488;2023-09-12T05:25:03;18.00;99.90
54192;DHT22;40101;53.002;6.488;2023-09-12T05:27:29;18.00;99.90
54192;DHT22;40101;53.002;6.488;2023-09-12T05:29:54;18.00;99.90
54192;DHT22;40101;53.002;6.488;2023-09-12T05:32:20;18.00;99.90
54192;DHT22;40101;53.002;6.488;2023-09-12T05:34:46;18.00;99.90
54192;DHT22;40101;53.002;6.488;2023-09-12T05:37:15;18.00;99.90
54192;DHT22;40101;53.002;6.488;2023-09-12T05:39:40;18.00;99.90
54192;DHT22;40101;53.002;6.488;2023-09-12T05:42:06;18.00;99.90
54192;DHT22;40101;53.002;6.488;2023-09-12T05:44:31;18.00;99.90
54192;DHT22;40101;53.002;6.488;2023-09-12T05:46:57;18.00;99.90
54192;DHT22;40101;53.002;6.488;2023-09-12T05:49:23;18.00;99.90
54192;DHT22;40101;53.002;6.488;2023-09-12T05:51:49;18.10;99.90
54192;DHT22;40101;53.002;6.488;2023-09-12T05:54:14;18.00;99.90
54192;DHT22;40101;53.002;6.488;2023-09-12T05:56:41;18.00;99.90
54192;DHT22;40101;53.002;6.488;2023-09-12T05:59:06;18.10;99.90
54192;DHT22;40101;53.002;6.488;2023-09-12T06:01:32;18.10;99.90
54192;DHT22;40101;53.002;6.488;2023-09-12T06:03:58;18.20;99.90
54192;DHT22;40101;53.002;6.488;2023-09-12T06:06:23;18.10;99.90
54192;DHT22;40101;53.002;6.488;2023-09-12T06:08:49;18.20;99.90
54192;DHT22;40101;53.002;6.488;2023-09-12T06:11:14;18.30;99.90
54192;DHT22;40101;53.002;6.488;2023-09-12T06:13:40;18.30;99.90
54192;DHT22;40101;53.002;6.488;2023-09-12T06:16:06;18.30;99.90
54192;DHT22;40101;53.002;6.488;2023-09-12T06:18:32;18.20;99.90
54192;DHT22;40101;53.002;6.488;2023-09-12T06:21:01;18.30;99.90
54192;DHT22;40101;53.002;6.488;2023-09-12T06:23:34;18.30;99.90
54192;DHT22;40101;53.002;6.488;2023-09-12T06:25:59;18.30;99.90
54192;DHT22;40101;53.002;6.488;2023-09-12T06:28:26;18.30;99.90
54192;DHT22;40101;53.002;6.488;2023-09-12T06:30:52;18.40;99.90
54192;DHT22;40101;53.002;6.488;2023-09-12T06:33:18;18.30;99.90
54192;DHT22;40101;53.002;6.488;2023-09-12T06:35:43;18.40;99.90
54192;DHT22;40101;53.002;6.488;2023-09-12T06:38:09;18.40;99.90
54192;DHT22;40101;53.002;6.488;2023-09-12T06:40:34;18.50;99.90
54192;DHT22;40101;53.002;6.488;2023-09-12T06:43:00;18.50;99.90
54192;DHT22;40101;53.002;6.488;2023-09-12T06:45:26;18.50;99.90
54192;DHT22;40101;53.002;6.488;2023-09-12T06:47:51;18.60;99.90
54192;DHT22;40101;53.002;6.488;2023-09-12T06:50:17;18.60;99.90
54192;DHT22;40101;53.002;6.488;2023-09-12T06:52:42;18.70;99.90
54192;DHT22;40101;53.002;6.488;2023-09-12T06:55:08;18.70;99.90
54192;DHT22;40101;53.002;6.488;2023-09-12T06:57:34;18.70;99.90
54192;DHT22;40101;53.002;6.488;2023-09-12T06:59:59;18.70;99.90
54192;DHT22;40101;53.002;6.488;2023-09-12T07:02:26;18.70;99.90
54192;DHT22;40101;53.002;6.488;2023-09-12T07:04:52;18.70;99.90
54192;DHT22;40101;53.002;6.488;2023-09-12T07:07:17;18.70;99.90
54192;DHT22;40101;53.002;6.488;2023-09-12T07:09:44;18.70;99.90
54192;DHT22;40101;53.002;6.488;2023-09-12T07:12:10;18.70;99.90
54192;DHT22;40101;53.002;6.488;2023-09-12T07:14:35;18.80;99.90
54192;DHT22;40101;53.002;6.488;2023-09-12T07:17:05;18.70;99.90
54192;DHT22;40101;53.002;6.488;2023-09-12T07:19:31;18.70;99.90
54192;DHT22;40101;53.002;6.488;2023-09-12T07:21:57;18.70;99.90
54192;DHT22;40101;53.002;6.488;2023-09-12T07:24:26;18.80;99.90
54192;DHT22;40101;53.002;6.488;2023-09-12T07:26:52;18.90;99.90
54192;DHT22;40101;53.002;6.488;2023-09-12T07:29:17;18.90;99.90
54192;DHT22;40101;53.002;6.488;2023-09-12T07:31:43;18.90;99.90
54192;DHT22;40101;53.002;6.488;2023-09-12T07:34:09;18.90;99.90
54192;DHT22;40101;53.002;6.488;2023-09-12T07:36:35;19.00;99.90
54192;DHT22;40101;53.002;6.488;2023-09-12T07:39:02;19.10;99.90
54192;DHT22;40101;53.002;6.488;2023-09-12T07:41:29;19.10;99.90
54192;DHT22;40101;53.002;6.488;2023-09-12T07:43:55;19.20;99.90
54192;DHT22;40101;53.002;6.488;2023-09-12T07:46:20;19.20;99.90
54192;DHT22;40101;53.002;6.488;2023-09-12T07:48:46;19.30;99.90
54192;DHT22;40101;53.002;6.488;2023-09-12T07:51:13;19.30;99.90
54192;DHT22;40101;53.002;6.488;2023-09-12T07:53:40;19.30;99.90
54192;DHT22;40101;53.002;6.488;2023-09-12T07:56:06;19.20;99.90
54192;DHT22;40101;53.002;6.488;2023-09-12T07:58:31;19.20;99.90
54192;DHT22;40101;53.002;6.488;2023-09-12T08:00:57;19.20;99.90
54192;DHT22;40101;53.002;6.488;2023-09-12T08:03:23;19.20;99.90
54192;DHT22;40101;53.002;6.488;2023-09-12T08:05:55;19.30;99.90
54192;DHT22;40101;53.002;6.488;2023-09-12T08:08:22;19.30;99.90
54192;DHT22;40101;53.002;6.488;2023-09-12T08:10:48;19.40;99.90
54192;DHT22;40101;53.002;6.488;2023-09-12T08:13:14;19.40;99.90
54192;DHT22;40101;53.002;6.488;2023-09-12T08:15:40;19.50;99.90
54192;DHT22;40101;53.002;6.488;2023-09-12T08:18:06;19.70;99.90
54192;DHT22;40101;53.002;6.488;2023-09-12T08:20:31;19.90;99.90
54192;DHT22;40101;53.002;6.488;2023-09-12T08:22:57;19.90;99.90
54192;DHT22;40101;53.002;6.488;2023-09-12T08:25:22;19.80;99.90
54192;DHT22;40101;53.002;6.488;2023-09-12T08:27:50;19.70;99.90
54192;DHT22;40101;53.002;6.488;2023-09-12T08:30:16;19.60;99.90
54192;DHT22;40101;53.002;6.488;2023-09-12T08:32:42;19.60;99.90
54192;DHT22;40101;53.002;6.488;2023-09-12T08:35:11;19.50;99.90
54192;DHT22;40101;53.002;6.488;2023-09-12T08:37:41;19.60;99.90
54192;DHT22;40101;53.002;6.488;2023-09-12T08:40:07;19.50;99.90
54192;DHT22;40101;53.002;6.488;2023-09-12T08:42:44;19.60;99.90
54192;DHT22;40101;53.002;6.488;2023-09-12T08:45:14;19.70;99.90
54192;DHT22;40101;53.002;6.488;2023-09-12T08:47:42;19.70;99.90
54192;DHT22;40101;53.002;6.488;2023-09-12T08:50:11;19.80;99.90
54192;DHT22;40101;53.002;6.488;2023-09-12T08:52:38;19.80;99.90
54192;DHT22;40101;53.002;6.488;2023-09-12T08:55:04;19.90;99.90
54192;DHT22;40101;53.002;6.488;2023-09-12T08:57:33;20.00;99.90
54192;DHT22;40101;53.002;6.488;2023-09-12T09:00:01;20.00;99.90
54192;DHT22;40101;53.002;6.488;2023-09-12T09:02:32;20.20;99.90
54192;DHT22;40101;53.002;6.488;2023-09-12T09:04:59;20.40;99.90
54192;DHT22;40101;53.002;6.488;2023-09-12T09:07:26;20.50;99.90
54192;DHT22;40101;53.002;6.488;2023-09-12T09:09:53;20.70;99.90
54192;DHT22;40101;53.002;6.488;2023-09-12T09:12:19;20.90;99.90
54192;DHT22;40101;53.002;6.488;2023-09-12T09:14:45;21.60;99.90
54192;DHT22;40101;53.002;6.488;2023-09-12T09:17:10;22.50;99.90
54192;DHT22;40101;53.002;6.488;2023-09-12T09:19:42;22.80;99.90
54192;DHT22;40101;53.002;6.488;2023-09-12T09:22:08;22.70;99.90
54192;DHT22;40101;53.002;6.488;2023-09-12T09:24:34;22.50;99.90
54192;DHT22;40101;53.002;6.488;2023-09-12T09:26:59;22.20;99.90
54192;DHT22;40101;53.002;6.488;2023-09-12T09:29:27;22.10;99.90
54192;DHT22;40101;53.002;6.488;2023-09-12T09:31:59;22.00;99.90
54192;DHT22;40101;53.002;6.488;2023-09-12T09:34:25;21.80;99.90
54192;DHT22;40101;53.002;6.488;2023-09-12T09:36:56;21.80;99.90
54192;DHT22;40101;53.002;6.488;2023-09-12T09:39:26;21.70;99.90
54192;DHT22;40101;53.002;6.488;2023-09-12T09:41:54;21.70;99.90
54192;DHT22;40101;53.002;6.488;2023-09-12T09:44:25;21.70;99.90
54192;DHT22;40101;53.002;6.488;2023-09-12T09:46:59;21.70;99.90
54192;DHT22;40101;53.002;6.488;2023-09-12T09:49:30;21.60;99.90
54192;DHT22;40101;53.002;6.488;2023-09-12T09:51:56;21.60;99.90
54192;DHT22;40101;53.002;6.488;2023-09-12T09:54:25;21.70;99.90
54192;DHT22;40101;53.002;6.488;2023-09-12T09:56:55;21.70;99.90
54192;DHT22;40101;53.002;6.488;2023-09-12T09:59:23;21.90;99.90
54192;DHT22;40101;53.002;6.488;2023-09-12T10:01:50;22.10;99.90
54192;DHT22;40101;53.002;6.488;2023-09-12T10:04:19;22.20;99.90
54192;DHT22;40101;53.002;6.488;2023-09-12T10:06:46;22.40;99.90
54192;DHT22;40101;53.002;6.488;2023-09-12T10:09:13;22.40;99.90
54192;DHT22;40101;53.002;6.488;2023-09-12T10:11:40;22.50;99.90
54192;DHT22;40101;53.002;6.488;2023-09-12T10:14:07;23.10;99.90
54192;DHT22;40101;53.002;6.488;2023-09-12T10:16:34;24.00;99.90
54192;DHT22;40101;53.002;6.488;2023-09-12T10:19:11;24.40;99.90
54192;DHT22;40101;53.002;6.488;2023-09-12T10:21:56;24.40;99.90
54192;DHT22;40101;53.002;6.488;2023-09-12T10:24:24;24.30;99.90
54192;DHT22;40101;53.002;6.488;2023-09-12T10:26:51;24.00;99.90
54192;DHT22;40101;53.002;6.488;2023-09-12T10:29:17;23.80;99.90
54192;DHT22;40101;53.002;6.488;2023-09-12T10:31:43;23.70;99.90
54192;DHT22;40101;53.002;6.488;2023-09-12T10:34:12;23.60;99.90
54192;DHT22;40101;53.002;6.488;2023-09-12T10:36:42;23.60;99.90
54192;DHT22;40101;53.002;6.488;2023-09-12T10:39:09;23.50;99.90
54192;DHT22;40101;53.002;6.488;2023-09-12T10:41:40;23.50;99.90
54192;DHT22;40101;53.002;6.488;2023-09-12T10:44:11;23.50;99.90
54192;DHT22;40101;53.002;6.488;2023-09-12T10:46:40;23.60;99.90
54192;DHT22;40101;53.002;6.488;2023-09-12T10:49:10;23.70;99.90
54192;DHT22;40101;53.002;6.488;2023-09-12T10:51:45;23.90;99.90
54192;DHT22;40101;53.002;6.488;2023-09-12T10:54:15;24.10;99.90
54192;DHT22;40101;53.002;6.488;2023-09-12T10:56:41;24.20;99.90
54192;DHT22;40101;53.002;6.488;2023-09-12T10:59:11;24.20;99.90
54192;DHT22;40101;53.002;6.488;2023-09-12T11:01:42;24.30;99.90
54192;DHT22;40101;53.002;6.488;2023-09-12T11:06:53;24.30;99.90
54192;DHT22;40101;53.002;6.488;2023-09-12T11:09:23;24.30;99.90
54192;DHT22;40101;53.002;6.488;2023-09-12T11:14:20;24.50;99.90
54192;DHT22;40101;53.002;6.488;2023-09-12T11:19:46;24.60;99.90
54192;DHT22;40101;53.002;6.488;2023-09-12T11:22:26;24.60;99.90
54192;DHT22;40101;53.002;6.488;2023-09-12T11:24:52;24.60;99.90
54192;DHT22;40101;53.002;6.488;2023-09-12T11:27:18;24.60;99.90
54192;DHT22;40101;53.002;6.488;2023-09-12T11:29:45;24.70;99.90
54192;DHT22;40101;53.002;6.488;2023-09-12T11:32:30;24.70;99.90
54192;DHT22;40101;53.002;6.488;2023-09-12T11:34:56;24.80;99.90
54192;DHT22;40101;53.002;6.488;2023-09-12T11:37:27;24.90;99.90
54192;DHT22;40101;53.002;6.488;2023-09-12T11:39:55;24.90;99.90
54192;DHT22;40101;53.002;6.488;2023-09-12T11:42:23;25.10;99.90
54192;DHT22;40101;53.002;6.488;2023-09-12T11:44:51;25.10;99.90
54192;DHT22;40101;53.002;6.488;2023-09-12T11:47:17;25.10;99.90
54192;DHT22;40101;53.002;6.488;2023-09-12T11:49:43;25.00;99.90
54192;DHT22;40101;53.002;6.488;2023-09-12T11:52:15;25.10;99.90
54192;DHT22;40101;53.002;6.488;2023-09-12T11:54:45;25.30;99.90
54192;DHT22;40101;53.002;6.488;2023-09-12T11:57:13;25.40;99.90
54192;DHT22;40101;53.002;6.488;2023-09-12T11:59:43;25.50;99.90
54192;DHT22;40101;53.002;6.488;2023-09-12T12:02:14;25.60;99.90
54192;DHT22;40101;53.002;6.488;2023-09-12T12:04:40;25.70;99.90
54192;DHT22;40101;53.002;6.488;2023-09-12T12:07:06;25.90;99.90
54192;DHT22;40101;53.002;6.488;2023-09-12T12:09:32;26.00;99.90
54192;DHT22;40101;53.002;6.488;2023-09-12T12:12:24;26.00;99.90
54192;DHT22;40101;53.002;6.488;2023-09-12T12:14:50;25.70;99.90
54192;DHT22;40101;53.002;6.488;2023-09-12T12:17:16;25.50;99.90
54192;DHT22;40101;53.002;6.488;2023-09-12T12:19:45;25.20;99.90
54192;DHT22;40101;53.002;6.488;2023-09-12T12:22:11;25.10;99.90
54192;DHT22;40101;53.002;6.488;2023-09-12T12:24:41;25.00;99.90
54192;DHT22;40101;53.002;6.488;2023-09-12T12:27:07;25.00;99.90
54192;DHT22;40101;53.002;6.488;2023-09-12T12:29:34;25.00;99.90
54192;DHT22;40101;53.002;6.488;2023-09-12T12:32:01;24.90;99.90
54192;DHT22;40101;53.002;6.488;2023-09-12T12:34:27;24.90;99.90
54192;DHT22;40101;53.002;6.488;2023-09-12T12:36:54;24.80;99.90
54192;DHT22;40101;53.002;6.488;2023-09-12T12:39:21;24.70;99.90
54192;DHT22;40101;53.002;6.488;2023-09-12T12:41:47;24.70;99.90
54192;DHT22;40101;53.002;6.488;2023-09-12T12:44:13;24.70;99.90
54192;DHT22;40101;53.002;6.488;2023-09-12T12:46:52;24.60;99.90
54192;DHT22;40101;53.002;6.488;2023-09-12T12:49:19;24.50;99.90
54192;DHT22;40101;53.002;6.488;2023-09-12T12:51:46;24.40;99.90
54192;DHT22;40101;53.002;6.488;2023-09-12T12:54:12;24.30;99.90
54192;DHT22;40101;53.002;6.488;2023-09-12T12:56:38;24.40;99.90
54192;DHT22;40101;53.002;6.488;2023-09-12T12:59:06;24.70;99.90
54192;DHT22;40101;53.002;6.488;2023-09-12T13:01:34;25.10;99.90
54192;DHT22;40101;53.002;6.488;2023-09-12T13:04:00;25.30;99.90
54192;DHT22;40101;53.002;6.488;2023-09-12T13:06:26;25.40;99.90
54192;DHT22;40101;53.002;6.488;2023-09-12T13:08:55;25.40;99.90
54192;DHT22;40101;53.002;6.488;2023-09-12T13:11:22;25.40;99.90
54192;DHT22;40101;53.002;6.488;2023-09-12T13:13:49;25.50;99.90
54192;DHT22;40101;53.002;6.488;2023-09-12T13:16:15;25.50;99.90
54192;DHT22;40101;53.002;6.488;2023-09-12T13:18:41;25.60;99.90
54192;DHT22;40101;53.002;6.488;2023-09-12T13:21:07;25.60;99.90
54192;DHT22;40101;53.002;6.488;2023-09-12T13:23:38;25.50;99.90
54192;DHT22;40101;53.002;6.488;2023-09-12T13:26:04;25.30;99.90
54192;DHT22;40101;53.002;6.488;2023-09-12T13:28:30;25.10;99.90
54192;DHT22;40101;53.002;6.488;2023-09-12T13:30:56;24.90;99.90
54192;DHT22;40101;53.002;6.488;2023-09-12T13:33:22;24.70;99.90
54192;DHT22;40101;53.002;6.488;2023-09-12T13:35:49;24.50;99.90
54192;DHT22;40101;53.002;6.488;2023-09-12T13:38:15;24.30;99.90
54192;DHT22;40101;53.002;6.488;2023-09-12T13:40:43;24.20;99.90
54192;DHT22;40101;53.002;6.488;2023-09-12T13:43:09;24.10;99.90
54192;DHT22;40101;53.002;6.488;2023-09-12T13:45:35;24.00;99.90
54192;DHT22;40101;53.002;6.488;2023-09-12T13:48:02;23.80;99.90
54192;DHT22;40101;53.002;6.488;2023-09-12T13:50:29;23.80;99.90
54192;DHT22;40101;53.002;6.488;2023-09-12T13:52:59;23.80;99.90
54192;DHT22;40101;53.002;6.488;2023-09-12T13:55:25;23.80;99.90
54192;DHT22;40101;53.002;6.488;2023-09-12T13:57:51;23.80;99.90
54192;DHT22;40101;53.002;6.488;2023-09-12T14:00:17;23.90;99.90
54192;DHT22;40101;53.002;6.488;2023-09-12T14:02:43;23.80;99.90
54192;DHT22;40101;53.002;6.488;2023-09-12T14:05:10;23.90;99.90
54192;DHT22;40101;53.002;6.488;2023-09-12T14:07:36;23.90;99.90
54192;DHT22;40101;53.002;6.488;2023-09-12T14:10:03;23.90;99.90
54192;DHT22;40101;53.002;6.488;2023-09-12T14:12:29;23.90;99.90
54192;DHT22;40101;53.002;6.488;2023-09-12T14:14:55;23.90;99.90
54192;DHT22;40101;53.002;6.488;2023-09-12T14:17:20;23.90;99.90
54192;DHT22;40101;53.002;6.488;2023-09-12T14:19:46;23.90;99.90
54192;DHT22;40101;53.002;6.488;2023-09-12T14:22:11;24.00;99.90
54192;DHT22;40101;53.002;6.488;2023-09-12T14:24:37;24.20;99.90
54192;DHT22;40101;53.002;6.488;2023-09-12T14:27:03;24.40;99.90
54192;DHT22;40101;53.002;6.488;2023-09-12T14:29:29;24.60;99.90
54192;DHT22;40101;53.002;6.488;2023-09-12T14:31:56;24.60;99.90
54192;DHT22;40101;53.002;6.488;2023-09-12T14:34:25;24.70;99.90
54192;DHT22;40101;53.002;6.488;2023-09-12T14:36:55;24.70;99.90
54192;DHT22;40101;53.002;6.488;2023-09-12T14:39:24;24.60;99.90
54192;DHT22;40101;53.002;6.488;2023-09-12T14:41:51;24.60;99.90
54192;DHT22;40101;53.002;6.488;2023-09-12T14:44:21;24.70;99.90
54192;DHT22;40101;53.002;6.488;2023-09-12T14:46:47;24.60;99.90
54192;DHT22;40101;53.002;6.488;2023-09-12T14:49:13;24.70;99.90
54192;DHT22;40101;53.002;6.488;2023-09-12T14:51:38;24.70;99.90
54192;DHT22;40101;53.002;6.488;2023-09-12T14:54:04;24.70;99.90
54192;DHT22;40101;53.002;6.488;2023-09-12T14:56:31;24.80;99.90
54192;DHT22;40101;53.002;6.488;2023-09-12T14:58:57;24.70;99.90
54192;DHT22;40101;53.002;6.488;2023-09-12T15:01:23;24.70;99.90
54192;DHT22;40101;53.002;6.488;2023-09-12T15:03:50;24.60;99.90
54192;DHT22;40101;53.002;6.488;2023-09-12T15:06:16;24.60;99.90
54192;DHT22;40101;53.002;6.488;2023-09-12T15:08:42;24.60;99.90
54192;DHT22;40101;53.002;6.488;2023-09-12T15:11:08;24.50;99.90
54192;DHT22;40101;53.002;6.488;2023-09-12T15:13:33;24.40;99.90
54192;DHT22;40101;53.002;6.488;2023-09-12T15:16:00;24.30;99.90
54192;DHT22;40101;53.002;6.488;2023-09-12T15:18:25;24.30;99.90
54192;DHT22;40101;53.002;6.488;2023-09-12T15:20:52;24.20;99.90
54192;DHT22;40101;53.002;6.488;2023-09-12T15:23:19;24.20;99.90
54192;DHT22;40101;53.002;6.488;2023-09-12T15:25:46;24.10;99.90
54192;DHT22;40101;53.002;6.488;2023-09-12T15:28:12;24.10;99.90
54192;DHT22;40101;53.002;6.488;2023-09-12T15:30:38;24.00;99.90
54192;DHT22;40101;53.002;6.488;2023-09-12T15:33:03;23.90;99.90
54192;DHT22;40101;53.002;6.488;2023-09-12T15:35:29;23.90;99.90
54192;DHT22;40101;53.002;6.488;2023-09-12T15:37:55;23.80;99.90
54192;DHT22;40101;53.002;6.488;2023-09-12T15:40:20;23.70;99.90